sensor_id;sensor_type;location;lat;lon;timestamp;pressure;altitude;pressure_sealevel;temperature;humidity
60307;BME280;46155;52.364;6.580;2023-05-02T03:01:10;101730.44;;;10.25;100.00
60307;BME280;46155;52.364;6.580;2023-05-02T03:03:39;101726.09;;;10.13;100.00
60307;BME280;46155;52.364;6.580;2023-05-02T03:06:06;101737.97;;;10.20;100.00
60307;BME280;46155;52.364;6.580;2023-05-02T03:08:39;101737.19;;;10.21;100.00
60307;BME280;46155;52.364;6.580;2023-05-02T03:11:05;101738.50;;;10.04;100.00
60307;BME280;46155;52.364;6.580;2023-05-02T03:13:30;101757.72;;;10.15;100.00
60307;BME280;46155;52.364;6.580;2023-05-02T03:16:36;101766.28;;;10.24;100.00
60307;BME280;46155;52.364;6.580;2023-05-02T03:19:02;101758.66;;;10.27;100.00
60307;BME280;46155;52.364;6.580;2023-05-02T03:21:29;101761.81;;;10.23;100.00
60307;BME280;46155;52.364;6.580;2023-05-02T03:23:57;101771.41;;;10.23;100.00
60307;BME280;46155;52.364;6.580;2023-05-02T03:26:22;101760.56;;;10.18;100.00
60307;BME280;46155;52.364;6.580;2023-05-02T03:28:49;101765.16;;;10.21;100.00
60307;BME280;46155;52.364;6.580;2023-05-02T03:31:15;101758.72;;;10.17;100.00
60307;BME280;46155;52.364;6.580;2023-05-02T03:33:41;101788.19;;;10.25;100.00
60307;BME280;46155;52.364;6.580;2023-05-02T03:36:06;101766.28;;;10.24;100.00
60307;BME280;46155;52.364;6.580;2023-05-02T03:38:32;101785.13;;;10.30;100.00
60307;BME280;46155;52.364;6.580;2023-05-02T03:40:57;101779.09;;;10.31;100.00
60307;BME280;46155;52.364;6.580;2023-05-02T03:43:22;101795.59;;;10.41;100.00
60307;BME280;46155;52.364;6.580;2023-05-02T03:45:48;101797.66;;;10.45;100.00
60307;BME280;46155;52.364;6.580;2023-05-02T03:48:13;101796.72;;;10.44;100.00
60307;BME280;46155;52.364;6.580;2023-05-02T03:50:38;101802.66;;;10.42;100.00
60307;BME280;46155;52.364;6.580;2023-05-02T03:53:03;101800.44;;;10.70;100.00
60307;BME280;46155;52.364;6.580;2023-05-02T03:55:29;101809.13;;;10.81;100.00
60307;BME280;46155;52.364;6.580;2023-05-02T03:57:54;101813.00;;;10.62;100.00
60307;BME280;46155;52.364;6.580;2023-05-02T04:00:19;101813.41;;;10.45;100.00
60307;BME280;46155;52.364;6.580;2023-05-02T04:02:45;101820.38;;;10.22;100.00
60307;BME280;46155;52.364;6.580;2023-05-02T04:05:10;101821.28;;;10.00;100.00
60307;BME280;46155;52.364;6.580;2023-05-02T04:07:35;101833.69;;;9.91;100.00
60307;BME280;46155;52.364;6.580;2023-05-02T04:10:01;101830.19;;;9.80;100.00
60307;BME280;46155;52.364;6.580;2023-05-02T04:12:26;101839.50;;;9.55;100.00
60307;BME280;46155;52.364;6.580;2023-05-02T04:14:51;101847.47;;;9.56;100.00
60307;BME280;46155;52.364;6.580;2023-05-02T04:17:16;101853.00;;;9.49;100.00
60307;BME280;46155;52.364;6.580;2023-05-02T04:19:42;101858.84;;;9.35;100.00
60307;BME280;46155;52.364;6.580;2023-05-02T04:22:07;101853.22;;;9.20;100.00
60307;BME280;46155;52.364;6.580;2023-05-02T04:24:32;101851.81;;;9.13;100.00
60307;BME280;46155;52.364;6.580;2023-05-02T04:26:58;101865.19;;;9.06;100.00
60307;BME280;46155;52.364;6.580;2023-05-02T04:29:23;101870.44;;;8.85;100.00
60307;BME280;46155;52.364;6.580;2023-05-02T04:31:50;101881.19;;;8.78;100.00
60307;BME280;46155;52.364;6.580;2023-05-02T04:34:15;101871.22;;;8.74;100.00
60307;BME280;46155;52.364;6.580;2023-05-02T04:36:41;101874.63;;;8.73;100.00
60307;BME280;46155;52.364;6.580;2023-05-02T04:39:06;101889.28;;;8.81;100.00
60307;BME280;46155;52.364;6.580;2023-05-02T04:41:32;101896.13;;;8.79;100.00
60307;BME280;46155;52.364;6.580;2023-05-02T04:43:57;101899.78;;;8.81;100.00
60307;BME280;46155;52.364;6.580;2023-05-02T04:46:23;101907.38;;;8.68;100.00
60307;BME280;46155;52.364;6.580;2023-05-02T04:48:48;101918.31;;;8.53;100.00
60307;BME280;46155;52.364;6.580;2023-05-02T04:51:13;101925.03;;;8.60;100.00
60307;BME280;46155;52.364;6.580;2023-05-02T04:53:38;101930.25;;;8.60;100.00
60307;BME280;46155;52.364;6.580;2023-05-02T04:56:04;101922.13;;;8.57;100.00
60307;BME280;46155;52.364;6.580;2023-05-02T04:58:30;101930.91;;;8.57;100.00
60307;BME280;46155;52.364;6.580;2023-05-02T05:00:55;101944.81;;;8.67;100.00
60307;BME280;46155;52.364;6.580;2023-05-02T05:03:21;101943.78;;;8.75;100.00
60307;BME280;46155;52.364;6.580;2023-05-02T05:05:46;101916.59;;;8.43;100.00
60307;BME280;46155;52.364;6.580;2023-05-02T05:08:12;101948.97;;;8.65;100.00
60307;BME280;46155;52.364;6.580;2023-05-02T05:10:37;101958.66;;;8.66;100.00
60307;BME280;46155;52.364;6.580;2023-05-02T05:13:04;101961.66;;;8.60;100.00
60307;BME280;46155;52.364;6.580;2023-05-02T05:15:29;101964.41;;;8.61;100.00
60307;BME280;46155;52.364;6.580;2023-05-02T05:17:55;101974.34;;;8.55;100.00
60307;BME280;46155;52.364;6.580;2023-05-02T05:20:20;101980.34;;;8.15;100.00
60307;BME280;46155;52.364;6.580;2023-05-02T05:22:45;101954.94;;;7.74;100.00
60307;BME280;46155;52.364;6.580;2023-05-02T05:25:11;101979.69;;;7.58;100.00
60307;BME280;46155;52.364;6.580;2023-05-02T05:27:36;101987.38;;;7.57;100.00
60307;BME280;46155;52.364;6.580;2023-05-02T05:30:05;101994.19;;;7.84;100.00
60307;BME280;46155;52.364;6.580;2023-05-02T05:32:34;101993.50;;;8.06;100.00
60307;BME280;46155;52.364;6.580;2023-05-02T05:35:00;101997.38;;;8.20;100.00
60307;BME280;46155;52.364;6.580;2023-05-02T05:37:25;101991.75;;;8.15;100.00
60307;BME280;46155;52.364;6.580;2023-05-02T05:39:50;102013.75;;;8.27;100.00
60307;BME280;46155;52.364;6.580;2023-05-02T05:42:16;102014.75;;;8.19;100.00
60307;BME280;46155;52.364;6.580;2023-05-02T05:44:41;102017.91;;;8.15;100.00
60307;BME280;46155;52.364;6.580;2023-05-02T05:47:06;102026.50;;;8.14;100.00
60307;BME280;46155;52.364;6.580;2023-05-02T05:49:32;102030.75;;;8.22;100.00
60307;BME280;46155;52.364;6.580;2023-05-02T05:51:57;102032.19;;;8.29;100.00
60307;BME280;46155;52.364;6.580;2023-05-02T05:54:22;102042.28;;;8.35;100.00
60307;BME280;46155;52.364;6.580;2023-05-02T05:56:48;102035.97;;;8.22;100.00
60307;BME280;46155;52.364;6.580;2023-05-02T05:59:13;102044.06;;;8.15;100.00
60307;BME280;46155;52.364;6.580;2023-05-02T06:01:39;102046.97;;;7.99;100.00
60307;BME280;46155;52.364;6.580;2023-05-02T06:04:05;102049.13;;;8.14;100.00
60307;BME280;46155;52.364;6.580;2023-05-02T06:06:31;102054.88;;;7.90;100.00
60307;BME280;46155;52.364;6.580;2023-05-02T06:08:57;102051.22;;;7.88;100.00
60307;BME280;46155;52.364;6.580;2023-05-02T06:11:22;102046.28;;;7.91;100.00
60307;BME280;46155;52.364;6.580;2023-05-02T06:13:50;102046.09;;;7.80;100.00
60307;BME280;46155;52.364;6.580;2023-05-02T06:16:15;102065.72;;;8.04;100.00
60307;BME280;46155;52.364;6.580;2023-05-02T06:18:42;102065.16;;;8.27;100.00
60307;BME280;46155;52.364;6.580;2023-05-02T06:21:07;102073.69;;;8.35;100.00
60307;BME280;46155;52.364;6.580;2023-05-02T06:23:33;102074.25;;;8.41;100.00
60307;BME280;46155;52.364;6.580;2023-05-02T06:25:59;102076.41;;;8.45;100.00
60307;BME280;46155;52.364;6.580;2023-05-02T06:28:25;102081.59;;;8.16;100.00
60307;BME280;46155;52.364;6.580;2023-05-02T06:30:58;102081.31;;;8.13;100.00
60307;BME280;46155;52.364;6.580;2023-05-02T06:33:23;102094.84;;;8.27;100.00
60307;BME280;46155;52.364;6.580;2023-05-02T06:35:52;102099.03;;;8.44;100.00
60307;BME280;46155;52.364;6.580;2023-05-02T06:38:18;102113.66;;;8.42;96.84
60307;BME280;46155;52.364;6.580;2023-05-02T06:40:43;102112.72;;;8.42;97.93
60307;BME280;46155;52.364;6.580;2023-05-02T06:43:10;102111.81;;;8.41;95.82
60307;BME280;46155;52.364;6.580;2023-05-02T06:45:35;102113.78;;;8.44;95.88
60307;BME280;46155;52.364;6.580;2023-05-02T06:48:00;102128.75;;;8.45;94.22
60307;BME280;46155;52.364;6.580;2023-05-02T06:50:26;102135.78;;;8.46;94.76
60307;BME280;46155;52.364;6.580;2023-05-02T06:52:51;102123.84;;;8.39;93.19
60307;BME280;46155;52.364;6.580;2023-05-02T06:55:16;102130.91;;;8.59;95.94
60307;BME280;46155;52.364;6.580;2023-05-02T06:57:41;102141.41;;;8.70;93.84
60307;BME280;46155;52.364;6.580;2023-05-02T07:00:08;102142.25;;;8.79;92.29
60307;BME280;46155;52.364;6.580;2023-05-02T07:02:33;102144.28;;;8.63;90.67
60307;BME280;46155;52.364;6.580;2023-05-02T07:04:59;102152.75;;;8.60;89.33
60307;BME280;46155;52.364;6.580;2023-05-02T07:07:24;102144.03;;;8.70;91.29
60307;BME280;46155;52.364;6.580;2023-05-02T07:09:49;102154.28;;;8.77;89.40
60307;BME280;46155;52.364;6.580;2023-05-02T07:12:15;102162.16;;;8.87;90.33
60307;BME280;46155;52.364;6.580;2023-05-02T07:14:40;102159.00;;;8.81;84.26
60307;BME280;46155;52.364;6.580;2023-05-02T07:17:05;102162.97;;;8.86;83.77
60307;BME280;46155;52.364;6.580;2023-05-02T07:19:30;102172.19;;;9.02;84.58
60307;BME280;46155;52.364;6.580;2023-05-02T07:21:56;102172.56;;;8.96;83.71
60307;BME280;46155;52.364;6.580;2023-05-02T07:24:22;102178.75;;;9.07;82.90
60307;BME280;46155;52.364;6.580;2023-05-02T07:26:47;102179.81;;;9.09;79.38
60307;BME280;46155;52.364;6.580;2023-05-02T07:29:12;102178.50;;;9.14;79.56
60307;BME280;46155;52.364;6.580;2023-05-02T07:31:38;102178.50;;;9.14;78.80
60307;BME280;46155;52.364;6.580;2023-05-02T07:34:03;102187.19;;;9.23;77.28
60307;BME280;46155;52.364;6.580;2023-05-02T07:36:28;102186.84;;;9.00;76.77
60307;BME280;46155;52.364;6.580;2023-05-02T07:38:54;102190.31;;;9.19;80.43
60307;BME280;46155;52.364;6.580;2023-05-02T07:41:19;102194.78;;;9.20;78.99
60307;BME280;46155;52.364;6.580;2023-05-02T07:43:45;102199.28;;;9.32;78.01
60307;BME280;46155;52.364;6.580;2023-05-02T07:46:10;102201.41;;;9.56;79.34
60307;BME280;46155;52.364;6.580;2023-05-02T07:48:35;102193.69;;;9.68;78.14
60307;BME280;46155;52.364;6.580;2023-05-02T07:51:08;102200.31;;;9.34;73.73
60307;BME280;46155;52.364;6.580;2023-05-02T07:53:34;102207.88;;;9.20;74.97
60307;BME280;46155;52.364;6.580;2023-05-02T07:55:59;102204.16;;;9.08;77.84
60307;BME280;46155;52.364;6.580;2023-05-02T07:58:26;102213.91;;;9.19;76.58
60307;BME280;46155;52.364;6.580;2023-05-02T08:00:51;102215.75;;;9.20;76.47
60307;BME280;46155;52.364;6.580;2023-05-02T08:03:16;102207.19;;;9.12;74.37
60307;BME280;46155;52.364;6.580;2023-05-02T08:05:41;102218.59;;;9.13;73.21
60307;BME280;46155;52.364;6.580;2023-05-02T08:08:07;102225.63;;;9.04;68.97
60307;BME280;46155;52.364;6.580;2023-05-02T08:10:32;102218.78;;;8.95;68.50
60307;BME280;46155;52.364;6.580;2023-05-02T08:12:57;102223.75;;;9.22;70.66
60307;BME280;46155;52.364;6.580;2023-05-02T08:15:23;102223.09;;;9.24;67.47
60307;BME280;46155;52.364;6.580;2023-05-02T08:17:48;102233.88;;;9.48;68.86
60307;BME280;46155;52.364;6.580;2023-05-02T08:20:13;102236.00;;;9.62;64.71
60307;BME280;46155;52.364;6.580;2023-05-02T08:22:39;102239.84;;;9.66;65.47
60307;BME280;46155;52.364;6.580;2023-05-02T08:25:05;102243.38;;;9.67;63.37
60307;BME280;46155;52.364;6.580;2023-05-02T08:27:30;102246.00;;;9.67;66.15
60307;BME280;46155;52.364;6.580;2023-05-02T08:29:55;102248.91;;;9.90;67.56
60307;BME280;46155;52.364;6.580;2023-05-02T08:32:21;102253.22;;;9.79;64.77
60307;BME280;46155;52.364;6.580;2023-05-02T08:34:46;102255.72;;;9.78;65.35
60307;BME280;46155;52.364;6.580;2023-05-02T08:37:12;102254.84;;;10.19;66.33
60307;BME280;46155;52.364;6.580;2023-05-02T08:39:37;102258.66;;;10.32;63.27
60307;BME280;46155;52.364;6.580;2023-05-02T08:42:06;102260.56;;;9.73;61.10
60307;BME280;46155;52.364;6.580;2023-05-02T08:44:32;102265.03;;;9.74;60.00
60307;BME280;46155;52.364;6.580;2023-05-02T08:46:59;102259.84;;;9.45;61.33
60307;BME280;46155;52.364;6.580;2023-05-02T08:49:25;102269.38;;;9.94;63.39
60307;BME280;46155;52.364;6.580;2023-05-02T08:51:52;102265.47;;;10.10;60.76
60307;BME280;46155;52.364;6.580;2023-05-02T08:54:19;102255.88;;;9.90;60.51
60307;BME280;46155;52.364;6.580;2023-05-02T08:56:45;102264.41;;;9.97;64.35
60307;BME280;46155;52.364;6.580;2023-05-02T08:59:11;102272.16;;;9.96;62.68
60307;BME280;46155;52.364;6.580;2023-05-02T09:01:38;102283.56;;;10.17;61.75
60307;BME280;46155;52.364;6.580;2023-05-02T09:04:05;102275.97;;;10.10;60.61
60307;BME280;46155;52.364;6.580;2023-05-02T09:06:31;102264.00;;;10.03;62.29
60307;BME280;46155;52.364;6.580;2023-05-02T09:08:59;102289.34;;;10.13;61.40
60307;BME280;46155;52.364;6.580;2023-05-02T09:11:24;102278.59;;;10.20;62.08
60307;BME280;46155;52.364;6.580;2023-05-02T09:13:51;102283.72;;;10.19;61.24
60307;BME280;46155;52.364;6.580;2023-05-02T09:16:19;102296.69;;;10.07;62.04
60307;BME280;46155;52.364;6.580;2023-05-02T09:18:50;102293.81;;;10.24;62.11
60307;BME280;46155;52.364;6.580;2023-05-02T09:21:35;102293.31;;;10.18;62.44
60307;BME280;46155;52.364;6.580;2023-05-02T09:24:01;102298.50;;;10.08;62.73
60307;BME280;46155;52.364;6.580;2023-05-02T09:26:38;102299.59;;;10.10;63.02
60307;BME280;46155;52.364;6.580;2023-05-02T09:29:04;102308.25;;;10.29;62.41
60307;BME280;46155;52.364;6.580;2023-05-02T09:31:34;102309.41;;;10.02;61.89
60307;BME280;46155;52.364;6.580;2023-05-02T09:34:10;102318.22;;;10.23;60.22
60307;BME280;46155;52.364;6.580;2023-05-02T09:36:47;102319.81;;;10.31;62.96
60307;BME280;46155;52.364;6.580;2023-05-02T09:39:17;102326.13;;;10.64;61.82
60307;BME280;46155;52.364;6.580;2023-05-02T09:41:44;102321.66;;;10.53;60.49
60307;BME280;46155;52.364;6.580;2023-05-02T09:44:12;102320.91;;;10.44;62.10
60307;BME280;46155;52.364;6.580;2023-05-02T09:46:42;102324.00;;;10.29;62.05
60307;BME280;46155;52.364;6.580;2023-05-02T09:49:08;102331.75;;;10.28;61.39
60307;BME280;46155;52.364;6.580;2023-05-02T09:51:36;102329.41;;;10.31;62.44
60307;BME280;46155;52.364;6.580;2023-05-02T09:54:02;102336.13;;;10.38;62.50
60307;BME280;46155;52.364;6.580;2023-05-02T09:56:28;102339.75;;;10.29;60.06
60307;BME280;46155;52.364;6.580;2023-05-02T10:01:39;102358.69;;;10.36;58.28
60307;BME280;46155;52.364;6.580;2023-05-02T10:04:08;102344.88;;;10.28;59.66
60307;BME280;46155;52.364;6.580;2023-05-02T10:06:34;102355.00;;;10.33;59.80
60307;BME280;46155;52.364;6.580;2023-05-02T10:08:59;102356.75;;;10.54;59.60
60307;BME280;46155;52.364;6.580;2023-05-02T10:11:25;102357.91;;;10.47;57.63
60307;BME280;46155;52.364;6.580;2023-05-02T10:13:51;102357.00;;;10.46;59.78
60307;BME280;46155;52.364;6.580;2023-05-02T10:16:22;102362.63;;;10.61;59.36
60307;BME280;46155;52.364;6.580;2023-05-02T10:18:57;102367.63;;;10.58;60.73
60307;BME280;46155;52.364;6.580;2023-05-02T10:21:25;102367.63;;;10.38;59.87
60307;BME280;46155;52.364;6.580;2023-05-02T10:23:54;102373.16;;;10.51;60.06
60307;BME280;46155;52.364;6.580;2023-05-02T10:26:21;102375.91;;;10.63;58.77
60307;BME280;46155;52.364;6.580;2023-05-02T10:28:50;102365.53;;;10.75;60.45
60307;BME280;46155;52.364;6.580;2023-05-02T10:31:17;102369.72;;;10.73;61.07
60307;BME280;46155;52.364;6.580;2023-05-02T10:33:43;102358.97;;;10.59;62.64
60307;BME280;46155;52.364;6.580;2023-05-02T10:36:10;102363.03;;;10.56;62.96
60307;BME280;46155;52.364;6.580;2023-05-02T10:38:39;102369.22;;;10.66;63.54
60307;BME280;46155;52.364;6.580;2023-05-02T10:41:13;102366.03;;;10.50;60.30
60307;BME280;46155;52.364;6.580;2023-05-02T10:43:40;102369.63;;;10.50;60.82
60307;BME280;46155;52.364;6.580;2023-05-02T10:46:32;102365.66;;;10.35;61.11
60307;BME280;46155;52.364;6.580;2023-05-02T10:51:29;102369.72;;;10.42;60.52
60307;BME280;46155;52.364;6.580;2023-05-02T10:57:03;102369.47;;;10.59;62.05
60307;BME280;46155;52.364;6.580;2023-05-02T10:59:33;102374.69;;;10.39;62.44
60307;BME280;46155;52.364;6.580;2023-05-02T11:01:59;102376.28;;;10.47;62.77
60307;BME280;46155;52.364;6.580;2023-05-02T11:05:01;102383.66;;;10.41;61.29
60307;BME280;46155;52.364;6.580;2023-05-02T11:07:33;102391.53;;;10.51;61.65
60307;BME280;46155;52.364;6.580;2023-05-02T11:12:48;102382.78;;;10.11;59.48
60307;BME280;46155;52.364;6.580;2023-05-02T11:15:52;102377.34;;;9.99;59.88
60307;BME280;46155;52.364;6.580;2023-05-02T11:20:38;102394.38;;;10.33;57.99
60307;BME280;46155;52.364;6.580;2023-05-02T11:25:52;102387.06;;;10.40;56.84
60307;BME280;46155;52.364;6.580;2023-05-02T11:31:09;102383.81;;;10.13;59.54
60307;BME280;46155;52.364;6.580;2023-05-02T11:34:01;102395.66;;;10.28;58.54
60307;BME280;46155;52.364;6.580;2023-05-02T11:36:30;102386.06;;;10.19;58.00
60307;BME280;46155;52.364;6.580;2023-05-02T11:39:03;102389.81;;;10.41;59.36
60307;BME280;46155;52.364;6.580;2023-05-02T11:41:41;102383.91;;;10.54;59.51
60307;BME280;46155;52.364;6.580;2023-05-02T11:44:07;102392.59;;;10.63;58.31
60307;BME280;46155;52.364;6.580;2023-05-02T11:46:35;102393.25;;;10.92;60.35
60307;BME280;46155;52.364;6.580;2023-05-02T11:49:01;102400.72;;;10.77;57.65
60307;BME280;46155;52.364;6.580;2023-05-02T11:51:26;102393.22;;;10.81;58.73
60307;BME280;46155;52.364;6.580;2023-05-02T11:53:52;102405.59;;;10.82;57.32
60307;BME280;46155;52.364;6.580;2023-05-02T11:56:22;102397.03;;;10.95;59.30
60307;BME280;46155;52.364;6.580;2023-05-02T11:59:00;102397.31;;;10.88;58.76
60307;BME280;46155;52.364;6.580;2023-05-02T12:01:26;102409.88;;;11.23;58.22
60307;BME280;46155;52.364;6.580;2023-05-02T12:04:04;102414.75;;;11.18;57.34
60307;BME280;46155;52.364;6.580;2023-05-02T12:06:31;102416.69;;;11.42;56.51
60307;BME280;46155;52.364;6.580;2023-05-02T12:09:07;102419.34;;;11.11;56.26
60307;BME280;46155;52.364;6.580;2023-05-02T12:11:33;102423.31;;;11.16;58.56
60307;BME280;46155;52.364;6.580;2023-05-02T12:13:59;102424.06;;;11.25;58.86
60307;BME280;46155;52.364;6.580;2023-05-02T12:16:25;102429.97;;;11.23;59.06
60307;BME280;46155;52.364;6.580;2023-05-02T12:18:50;102424.59;;;11.21;59.07
60307;BME280;46155;52.364;6.580;2023-05-02T12:21:16;102432.47;;;11.21;59.44
60307;BME280;46155;52.364;6.580;2023-05-02T12:23:42;102427.63;;;11.15;57.68
60307;BME280;46155;52.364;6.580;2023-05-02T12:26:24;102430.53;;;11.08;58.27
60307;BME280;46155;52.364;6.580;2023-05-02T12:28:54;102436.56;;;11.17;58.48
60307;BME280;46155;52.364;6.580;2023-05-02T12:31:19;102434.41;;;11.34;57.32
60307;BME280;46155;52.364;6.580;2023-05-02T12:33:45;102435.22;;;11.23;56.21
60307;BME280;46155;52.364;6.580;2023-05-02T12:36:12;102439.34;;;10.98;56.76
60307;BME280;46155;52.364;6.580;2023-05-02T12:38:38;102447.59;;;11.24;58.41
60307;BME280;46155;52.364;6.580;2023-05-02T12:41:04;102448.25;;;11.31;58.76
60307;BME280;46155;52.364;6.580;2023-05-02T12:43:44;102442.06;;;11.41;56.90
60307;BME280;46155;52.364;6.580;2023-05-02T12:46:10;102441.38;;;11.44;57.45
60307;BME280;46155;52.364;6.580;2023-05-02T12:48:35;102449.00;;;11.41;57.43
60307;BME280;46155;52.364;6.580;2023-05-02T12:51:01;102447.44;;;11.43;57.16
60307;BME280;46155;52.364;6.580;2023-05-02T12:53:42;102454.00;;;11.58;58.89
60307;BME280;46155;52.364;6.580;2023-05-02T12:56:09;102457.94;;;11.53;56.89
60307;BME280;46155;52.364;6.580;2023-05-02T13:01:07;102453.91;;;11.36;55.70
60307;BME280;46155;52.364;6.580;2023-05-02T13:03:33;102458.72;;;11.52;55.41
60307;BME280;46155;52.364;6.580;2023-05-02T13:05:59;102452.38;;;11.60;55.46
60307;BME280;46155;52.364;6.580;2023-05-02T13:08:24;102457.38;;;11.67;56.83
60307;BME280;46155;52.364;6.580;2023-05-02T13:10:49;102466.84;;;12.08;55.55
60307;BME280;46155;52.364;6.580;2023-05-02T13:13:15;102452.09;;;12.10;53.90
60307;BME280;46155;52.364;6.580;2023-05-02T13:15:40;102455.25;;;12.16;55.17
60307;BME280;46155;52.364;6.580;2023-05-02T13:18:06;102445.63;;;12.17;53.21
60307;BME280;46155;52.364;6.580;2023-05-02T13:20:31;102452.13;;;12.32;53.25
60307;BME280;46155;52.364;6.580;2023-05-02T13:22:56;102462.22;;;12.38;54.10
60307;BME280;46155;52.364;6.580;2023-05-02T13:25:22;102452.63;;;12.06;52.05
60307;BME280;46155;52.364;6.580;2023-05-02T13:27:47;102458.44;;;12.02;53.69
60307;BME280;46155;52.364;6.580;2023-05-02T13:30:12;102461.78;;;11.99;54.11
60307;BME280;46155;52.364;6.580;2023-05-02T13:32:38;102463.97;;;12.05;54.96
60307;BME280;46155;52.364;6.580;2023-05-02T13:35:04;102464.63;;;11.92;54.76
60307;BME280;46155;52.364;6.580;2023-05-02T13:37:30;102466.22;;;11.90;53.52
60307;BME280;46155;52.364;6.580;2023-05-02T13:39:55;102456.78;;;11.82;56.07
60307;BME280;46155;52.364;6.580;2023-05-02T13:42:20;102459.13;;;11.89;53.48
60307;BME280;46155;52.364;6.580;2023-05-02T13:44:46;102466.22;;;12.00;54.03
60307;BME280;46155;52.364;6.580;2023-05-02T13:47:11;102458.84;;;12.07;52.11
60307;BME280;46155;52.364;6.580;2023-05-02T13:49:36;102451.72;;;12.05;52.73
60307;BME280;46155;52.364;6.580;2023-05-02T13:52:01;102451.13;;;12.20;55.39
60307;BME280;46155;52.364;6.580;2023-05-02T13:54:27;102462.28;;;12.50;54.44
60307;BME280;46155;52.364;6.580;2023-05-02T13:56:52;102454.44;;;12.39;53.89
60307;BME280;46155;52.364;6.580;2023-05-02T13:59:18;102463.19;;;12.28;53.20
60307;BME280;46155;52.364;6.580;2023-05-02T14:01:43;102455.06;;;12.25;53.33
60307;BME280;46155;52.364;6.580;2023-05-02T14:04:08;102463.97;;;12.27;52.75
60307;BME280;46155;52.364;6.580;2023-05-02T14:06:34;102468.25;;;12.15;54.06
60307;BME280;46155;52.364;6.580;2023-05-02T14:08:59;102462.50;;;12.09;55.06
60307;BME280;46155;52.364;6.580;2023-05-02T14:11:25;102453.97;;;12.33;56.86
60307;BME280;46155;52.364;6.580;2023-05-02T14:13:51;102458.47;;;12.24;52.43
60307;BME280;46155;52.364;6.580;2023-05-02T14:16:16;102456.88;;;12.04;51.95
60307;BME280;46155;52.364;6.580;2023-05-02T14:18:42;102455.38;;;12.08;54.02
60307;BME280;46155;52.364;6.580;2023-05-02T14:21:07;102459.56;;;12.16;54.90
60307;BME280;46155;52.364;6.580;2023-05-02T14:23:32;102449.09;;;11.63;52.68
60307;BME280;46155;52.364;6.580;2023-05-02T14:25:58;102447.66;;;11.56;53.71
60307;BME280;46155;52.364;6.580;2023-05-02T14:28:23;102458.63;;;11.40;53.72
60307;BME280;46155;52.364;6.580;2023-05-02T14:30:49;102457.59;;;11.70;57.11
60307;BME280;46155;52.364;6.580;2023-05-02T14:33:14;102457.28;;;11.45;53.91
60307;BME280;46155;52.364;6.580;2023-05-02T14:35:40;102452.69;;;11.32;54.55
60307;BME280;46155;52.364;6.580;2023-05-02T14:38:05;102458.69;;;11.62;55.83
60307;BME280;46155;52.364;6.580;2023-05-02T14:40:30;102454.00;;;11.58;54.75
60307;BME280;46155;52.364;6.580;2023-05-02T14:42:56;102455.16;;;11.62;54.69
60307;BME280;46155;52.364;6.580;2023-05-02T14:45:21;102450.56;;;11.49;54.55
60307;BME280;46155;52.364;6.580;2023-05-02T14:47:47;102470.03;;;11.51;53.87
60307;BME280;46155;52.364;6.580;2023-05-02T14:50:13;102464.03;;;11.21;54.33
60307;BME280;46155;52.364;6.580;2023-05-02T14:52:38;102463.63;;;11.27;56.03
60307;BME280;46155;52.364;6.580;2023-05-02T14:55:04;102463.59;;;11.47;55.10
60307;BME280;46155;52.364;6.580;2023-05-02T14:57:30;102470.03;;;11.51;55.23
60307;BME280;46155;52.364;6.580;2023-05-02T14:59:55;102467.47;;;11.73;55.09
60307;BME280;46155;52.364;6.580;2023-05-02T15:02:20;102465.41;;;11.59;55.57
60307;BME280;46155;52.364;6.580;2023-05-02T15:04:46;102461.88;;;11.58;56.02
60307;BME280;46155;52.364;6.580;2023-05-02T15:07:11;102461.22;;;11.50;57.50
60307;BME280;46155;52.364;6.580;2023-05-02T15:09:36;102460.59;;;11.43;57.11
60307;BME280;46155;52.364;6.580;2023-05-02T15:12:02;102467.06;;;11.26;57.73
60307;BME280;46155;52.364;6.580;2023-05-02T15:14:27;102466.38;;;11.28;59.42
60307;BME280;46155;52.364;6.580;2023-05-02T15:16:53;102471.00;;;11.10;59.52
60307;BME280;46155;52.364;6.580;2023-05-02T15:19:19;102471.66;;;10.87;60.33
60307;BME280;46155;52.364;6.580;2023-05-02T15:21:47;102480.22;;;10.84;58.93
60307;BME280;46155;52.364;6.580;2023-05-02T15:24:13;102487.16;;;10.84;59.32
60307;BME280;46155;52.364;6.580;2023-05-02T15:26:39;102477.41;;;10.73;59.81
60307;BME280;46155;52.364;6.580;2023-05-02T15:29:05;102482.16;;;10.56;60.44
60307;BME280;46155;52.364;6.580;2023-05-02T15:31:30;102487.16;;;10.84;61.83
60307;BME280;46155;52.364;6.580;2023-05-02T15:33:57;102485.59;;;11.07;59.86
60307;BME280;46155;52.364;6.580;2023-05-02T15:36:26;102491.25;;;11.22;57.71
60307;BME280;46155;52.364;6.580;2023-05-02T15:38:53;102492.56;;;11.37;58.76
60307;BME280;46155;52.364;6.580;2023-05-02T15:41:18;102495.31;;;11.39;56.80
60307;BME280;46155;52.364;6.580;2023-05-02T15:43:43;102490.53;;;11.65;57.72
60307;BME280;46155;52.364;6.580;2023-05-02T15:46:09;102487.38;;;11.69;56.33
60307;BME280;46155;52.364;6.580;2023-05-02T15:48:35;102474.22;;;11.59;57.70
60307;BME280;46155;52.364;6.580;2023-05-02T15:51:01;102488.19;;;11.58;55.80
60307;BME280;46155;52.364;6.580;2023-05-02T15:53:27;102485.34;;;11.77;57.45
60307;BME280;46155;52.364;6.580;2023-05-02T15:55:52;102488.78;;;11.76;55.94
60307;BME280;46155;52.364;6.580;2023-05-02T15:58:19;102497.31;;;11.94;56.41
60307;BME280;46155;52.364;6.580;2023-05-02T16:00:44;102499.41;;;11.88;57.52
60307;BME280;46155;52.364;6.580;2023-05-02T16:03:11;102494.94;;;11.97;57.34
60307;BME280;46155;52.364;6.580;2023-05-02T16:05:37;102497.88;;;11.59;57.21
60307;BME280;46155;52.364;6.580;2023-05-02T16:08:03;102493.06;;;11.43;58.13
60307;BME280;46155;52.364;6.580;2023-05-02T16:10:29;102499.63;;;11.38;59.20